sensor_id;sensor_type;location;lat;lon;timestamp;P1;durP1;ratioP1;P2;durP2;ratioP2
21621;SDS011;10973;46.706;12.340;2023-02-28T00:01:48;6.30;;;5.70;;
21621;SDS011;10973;46.706;12.340;2023-02-28T00:04:16;5.63;;;5.20;;
21621;SDS011;10973;46.706;12.340;2023-02-28T00:06:43;5.83;;;5.33;;
21621;SDS011;10973;46.706;12.340;2023-02-28T00:09:10;5.77;;;5.27;;
21621;SDS011;10973;46.706;12.340;2023-02-28T00:11:38;5.57;;;5.03;;
21621;SDS011;10973;46.706;12.340;2023-02-28T00:14:05;6.17;;;5.57;;
21621;SDS011;10973;46.706;12.340;2023-02-28T00:16:32;6.13;;;5.47;;
21621;SDS011;10973;46.706;12.340;2023-02-28T00:18:59;7.90;;;5.70;;
21621;SDS011;10973;46.706;12.340;2023-02-28T00:21:27;6.20;;;5.60;;
21621;SDS011;10973;46.706;12.340;2023-02-28T00:23:55;6.03;;;5.43;;
21621;SDS011;10973;46.706;12.340;2023-02-28T00:26:22;5.33;;;4.83;;
21621;SDS011;10973;46.706;12.340;2023-02-28T00:28:51;6.50;;;5.87;;
21621;SDS011;10973;46.706;12.340;2023-02-28T00:31:18;6.17;;;5.47;;
21621;SDS011;10973;46.706;12.340;2023-02-28T00:33:46;6.77;;;6.07;;
21621;SDS011;10973;46.706;12.340;2023-02-28T00:36:13;6.57;;;5.80;;
21621;SDS011;10973;46.706;12.340;2023-02-28T00:38:40;6.57;;;5.87;;
21621;SDS011;10973;46.706;12.340;2023-02-28T00:41:08;6.07;;;5.47;;
21621;SDS011;10973;46.706;12.340;2023-02-28T00:43:36;7.33;;;6.07;;
21621;SDS011;10973;46.706;12.340;2023-02-28T00:46:05;6.97;;;6.37;;
21621;SDS011;10973;46.706;12.340;2023-02-28T00:48:33;6.97;;;6.30;;
21621;SDS011;10973;46.706;12.340;2023-02-28T00:51:01;6.37;;;5.77;;
21621;SDS011;10973;46.706;12.340;2023-02-28T00:53:29;6.67;;;5.93;;
21621;SDS011;10973;46.706;12.340;2023-02-28T00:55:56;6.43;;;5.73;;
21621;SDS011;10973;46.706;12.340;2023-02-28T00:58:24;7.50;;;6.80;;
21621;SDS011;10973;46.706;12.340;2023-02-28T01:00:51;6.67;;;6.00;;
21621;SDS011;10973;46.706;12.340;2023-02-28T01:03:19;7.10;;;5.90;;
21621;SDS011;10973;46.706;12.340;2023-02-28T01:05:48;6.97;;;6.27;;
21621;SDS011;10973;46.706;12.340;2023-02-28T01:08:15;7.00;;;6.10;;
21621;SDS011;10973;46.706;12.340;2023-02-28T01:10:42;7.17;;;6.40;;
21621;SDS011;10973;46.706;12.340;2023-02-28T01:13:10;6.67;;;6.07;;
21621;SDS011;10973;46.706;12.340;2023-02-28T01:15:40;6.60;;;5.93;;
21621;SDS011;10973;46.706;12.340;2023-02-28T01:18:15;6.70;;;6.00;;
21621;SDS011;10973;46.706;12.340;2023-02-28T01:20:43;6.60;;;6.00;;
21621;SDS011;10973;46.706;12.340;2023-02-28T01:23:10;6.40;;;5.80;;
21621;SDS011;10973;46.706;12.340;2023-02-28T01:25:38;6.77;;;6.07;;
21621;SDS011;10973;46.706;12.340;2023-02-28T01:28:05;6.90;;;6.30;;
21621;SDS011;10973;46.706;12.340;2023-02-28T01:30:32;7.30;;;6.60;;
21621;SDS011;10973;46.706;12.340;2023-02-28T01:33:00;6.77;;;5.93;;
21621;SDS011;10973;46.706;12.340;2023-02-28T01:35:28;11.40;;;6.17;;
21621;SDS011;10973;46.706;12.340;2023-02-28T01:37:59;7.27;;;6.57;;
21621;SDS011;10973;46.706;12.340;2023-02-28T01:40:46;7.13;;;6.43;;
21621;SDS011;10973;46.706;12.340;2023-02-28T01:43:23;6.57;;;5.97;;
21621;SDS011;10973;46.706;12.340;2023-02-28T01:46:09;6.80;;;6.10;;
21621;SDS011;10973;46.706;12.340;2023-02-28T01:48:39;6.80;;;6.10;;
21621;SDS011;10973;46.706;12.340;2023-02-28T01:51:33;6.40;;;5.00;;
21621;SDS011;10973;46.706;12.340;2023-02-28T01:54:02;5.73;;;5.23;;
21621;SDS011;10973;46.706;12.340;2023-02-28T01:56:37;6.90;;;5.37;;
21621;SDS011;10973;46.706;12.340;2023-02-28T01:59:04;5.47;;;4.97;;
21621;SDS011;10973;46.706;12.340;2023-02-28T02:01:31;5.87;;;5.33;;
21621;SDS011;10973;46.706;12.340;2023-02-28T02:04:01;6.10;;;5.17;;
21621;SDS011;10973;46.706;12.340;2023-02-28T02:06:34;6.10;;;5.57;;
21621;SDS011;10973;46.706;12.340;2023-02-28T02:09:11;7.03;;;5.30;;
21621;SDS011;10973;46.706;12.340;2023-02-28T02:11:39;6.83;;;5.97;;
21621;SDS011;10973;46.706;12.340;2023-02-28T02:14:36;7.03;;;6.33;;
21621;SDS011;10973;46.706;12.340;2023-02-28T02:17:22;8.20;;;6.50;;
21621;SDS011;10973;46.706;12.340;2023-02-28T02:23:08;8.37;;;6.73;;
21621;SDS011;10973;46.706;12.340;2023-02-28T02:29:21;9.87;;;7.07;;
21621;SDS011;10973;46.706;12.340;2023-02-28T02:35:00;7.47;;;6.30;;
21621;SDS011;10973;46.706;12.340;2023-02-28T02:44:26;6.20;;;5.33;;
21621;SDS011;10973;46.706;12.340;2023-02-28T02:46:43;6.33;;;5.03;;
21621;SDS011;10973;46.706;12.340;2023-02-28T02:49:19;6.17;;;5.57;;
21621;SDS011;10973;46.706;12.340;2023-02-28T02:51:57;5.73;;;5.23;;
21621;SDS011;10973;46.706;12.340;2023-02-28T02:54:33;7.00;;;5.63;;
21621;SDS011;10973;46.706;12.340;2023-02-28T02:57:07;5.50;;;5.00;;
21621;SDS011;10973;46.706;12.340;2023-02-28T03:00:17;5.80;;;5.20;;
21621;SDS011;10973;46.706;12.340;2023-02-28T03:02:52;5.90;;;5.00;;
21621;SDS011;10973;46.706;12.340;2023-02-28T03:05:23;5.50;;;4.93;;
21621;SDS011;10973;46.706;12.340;2023-02-28T03:07:56;5.60;;;5.10;;
21621;SDS011;10973;46.706;12.340;2023-02-28T03:22:10;5.80;;;5.20;;
21621;SDS011;10973;46.706;12.340;2023-02-28T03:31:00;11.97;;;5.03;;
21621;SDS011;10973;46.706;12.340;2023-02-28T03:33:44;6.07;;;5.00;;
21621;SDS011;10973;46.706;12.340;2023-02-28T03:36:17;6.10;;;5.50;;
21621;SDS011;10973;46.706;12.340;2023-02-28T03:38:48;6.83;;;5.63;;
21621;SDS011;10973;46.706;12.340;2023-02-28T03:41:30;7.07;;;5.70;;
21621;SDS011;10973;46.706;12.340;2023-02-28T03:44:48;7.40;;;5.93;;
21621;SDS011;10973;46.706;12.340;2023-02-28T03:47:12;6.93;;;5.93;;
21621;SDS011;10973;46.706;12.340;2023-02-28T03:50:11;7.63;;;5.70;;
21621;SDS011;10973;46.706;12.340;2023-02-28T03:52:48;10.53;;;6.40;;
21621;SDS011;10973;46.706;12.340;2023-02-28T03:55:20;7.60;;;6.70;;
21621;SDS011;10973;46.706;12.340;2023-02-28T03:58:34;10.07;;;6.63;;
21621;SDS011;10973;46.706;12.340;2023-02-28T04:01:06;7.67;;;6.40;;
21621;SDS011;10973;46.706;12.340;2023-02-28T04:03:51;6.70;;;6.00;;
21621;SDS011;10973;46.706;12.340;2023-02-28T04:06:20;10.77;;;7.13;;
21621;SDS011;10973;46.706;12.340;2023-02-28T04:08:49;8.53;;;6.67;;
21621;SDS011;10973;46.706;12.340;2023-02-28T04:11:18;9.70;;;7.07;;
21621;SDS011;10973;46.706;12.340;2023-02-28T04:13:54;9.40;;;7.57;;
21621;SDS011;10973;46.706;12.340;2023-02-28T04:16:22;10.23;;;8.57;;
21621;SDS011;10973;46.706;12.340;2023-02-28T04:19:01;7.70;;;6.47;;
21621;SDS011;10973;46.706;12.340;2023-02-28T04:21:30;7.37;;;6.67;;
21621;SDS011;10973;46.706;12.340;2023-02-28T04:24:01;9.33;;;6.43;;
21621;SDS011;10973;46.706;12.340;2023-02-28T04:26:30;6.50;;;5.57;;
21621;SDS011;10973;46.706;12.340;2023-02-28T04:28:59;6.90;;;6.20;;
21621;SDS011;10973;46.706;12.340;2023-02-28T04:31:27;6.67;;;6.07;;
21621;SDS011;10973;46.706;12.340;2023-02-28T04:33:56;8.67;;;6.20;;
21621;SDS011;10973;46.706;12.340;2023-02-28T04:36:24;9.10;;;6.10;;
21621;SDS011;10973;46.706;12.340;2023-02-28T04:38:51;8.50;;;6.90;;
21621;SDS011;10973;46.706;12.340;2023-02-28T04:41:19;6.77;;;6.00;;
21621;SDS011;10973;46.706;12.340;2023-02-28T04:43:48;9.67;;;6.90;;
21621;SDS011;10973;46.706;12.340;2023-02-28T04:46:17;9.57;;;8.20;;
21621;SDS011;10973;46.706;12.340;2023-02-28T04:48:45;12.40;;;8.30;;
21621;SDS011;10973;46.706;12.340;2023-02-28T04:51:13;12.50;;;7.53;;
21621;SDS011;10973;46.706;12.340;2023-02-28T04:53:42;8.77;;;6.73;;
21621;SDS011;10973;46.706;12.340;2023-02-28T04:56:14;10.53;;;6.67;;
21621;SDS011;10973;46.706;12.340;2023-02-28T04:58:43;9.03;;;5.87;;
21621;SDS011;10973;46.706;12.340;2023-02-28T05:01:16;6.60;;;5.93;;
21621;SDS011;10973;46.706;12.340;2023-02-28T05:03:55;6.37;;;5.77;;
21621;SDS011;10973;46.706;12.340;2023-02-28T05:06:25;7.17;;;6.40;;
21621;SDS011;10973;46.706;12.340;2023-02-28T05:08:54;8.87;;;6.63;;
21621;SDS011;10973;46.706;12.340;2023-02-28T05:11:27;6.83;;;6.17;;
21621;SDS011;10973;46.706;12.340;2023-02-28T05:13:57;9.53;;;6.50;;
21621;SDS011;10973;46.706;12.340;2023-02-28T05:16:24;10.97;;;7.27;;
21621;SDS011;10973;46.706;12.340;2023-02-28T05:18:52;11.63;;;6.93;;
21621;SDS011;10973;46.706;12.340;2023-02-28T05:23:59;10.07;;;7.50;;
21621;SDS011;10973;46.706;12.340;2023-02-28T05:26:28;16.50;;;11.97;;
21621;SDS011;10973;46.706;12.340;2023-02-28T05:28:56;11.80;;;8.40;;
21621;SDS011;10973;46.706;12.340;2023-02-28T05:31:24;12.37;;;7.80;;
21621;SDS011;10973;46.706;12.340;2023-02-28T05:33:52;9.77;;;7.37;;
21621;SDS011;10973;46.706;12.340;2023-02-28T05:36:20;9.53;;;7.97;;
21621;SDS011;10973;46.706;12.340;2023-02-28T05:38:48;7.97;;;7.10;;
21621;SDS011;10973;46.706;12.340;2023-02-28T05:41:16;8.83;;;7.60;;
21621;SDS011;10973;46.706;12.340;2023-02-28T05:43:45;8.53;;;7.73;;
21621;SDS011;10973;46.706;12.340;2023-02-28T05:46:14;9.70;;;7.77;;
21621;SDS011;10973;46.706;12.340;2023-02-28T05:48:42;7.80;;;7.00;;
21621;SDS011;10973;46.706;12.340;2023-02-28T05:51:12;11.40;;;7.93;;
21621;SDS011;10973;46.706;12.340;2023-02-28T05:53:40;11.20;;;8.87;;
21621;SDS011;10973;46.706;12.340;2023-02-28T05:56:07;13.57;;;9.53;;
21621;SDS011;10973;46.706;12.340;2023-02-28T05:58:35;10.47;;;8.60;;
21621;SDS011;10973;46.706;12.340;2023-02-28T06:01:23;11.27;;;8.27;;
21621;SDS011;10973;46.706;12.340;2023-02-28T06:03:59;9.97;;;8.83;;
21621;SDS011;10973;46.706;12.340;2023-02-28T06:06:27;9.80;;;8.50;;
21621;SDS011;10973;46.706;12.340;2023-02-28T06:08:55;9.37;;;7.47;;
21621;SDS011;10973;46.706;12.340;2023-02-28T06:11:23;9.63;;;8.13;;
21621;SDS011;10973;46.706;12.340;2023-02-28T06:13:52;11.80;;;8.07;;
21621;SDS011;10973;46.706;12.340;2023-02-28T06:16:21;9.33;;;8.20;;
21621;SDS011;10973;46.706;12.340;2023-02-28T06:18:49;12.17;;;8.27;;
21621;SDS011;10973;46.706;12.340;2023-02-28T06:21:17;10.63;;;8.27;;
21621;SDS011;10973;46.706;12.340;2023-02-28T06:23:45;9.60;;;8.60;;
21621;SDS011;10973;46.706;12.340;2023-02-28T06:26:12;14.77;;;9.13;;
21621;SDS011;10973;46.706;12.340;2023-02-28T06:28:40;11.20;;;8.50;;
21621;SDS011;10973;46.706;12.340;2023-02-28T06:31:11;9.77;;;7.97;;
21621;SDS011;10973;46.706;12.340;2023-02-28T06:33:42;8.90;;;8.00;;
21621;SDS011;10973;46.706;12.340;2023-02-28T06:36:10;8.73;;;7.90;;
21621;SDS011;10973;46.706;12.340;2023-02-28T06:38:39;10.27;;;8.17;;
21621;SDS011;10973;46.706;12.340;2023-02-28T06:41:07;9.47;;;8.13;;
21621;SDS011;10973;46.706;12.340;2023-02-28T06:43:40;41.77;;;9.97;;
21621;SDS011;10973;46.706;12.340;2023-02-28T06:46:08;9.33;;;8.27;;
21621;SDS011;10973;46.706;12.340;2023-02-28T06:48:39;9.93;;;8.37;;
21621;SDS011;10973;46.706;12.340;2023-02-28T06:51:08;9.70;;;7.83;;
21621;SDS011;10973;46.706;12.340;2023-02-28T06:53:38;8.73;;;7.83;;
21621;SDS011;10973;46.706;12.340;2023-02-28T06:56:07;10.80;;;8.90;;
21621;SDS011;10973;46.706;12.340;2023-02-28T06:58:36;9.90;;;8.90;;
21621;SDS011;10973;46.706;12.340;2023-02-28T07:01:05;13.93;;;9.90;;
21621;SDS011;10973;46.706;12.340;2023-02-28T07:03:36;10.60;;;8.70;;
21621;SDS011;10973;46.706;12.340;2023-02-28T07:06:04;14.40;;;9.30;;
21621;SDS011;10973;46.706;12.340;2023-02-28T07:08:33;14.87;;;9.83;;
21621;SDS011;10973;46.706;12.340;2023-02-28T07:11:01;11.07;;;9.43;;
21621;SDS011;10973;46.706;12.340;2023-02-28T07:13:30;14.07;;;10.03;;
21621;SDS011;10973;46.706;12.340;2023-02-28T07:16:03;16.43;;;12.03;;
21621;SDS011;10973;46.706;12.340;2023-02-28T07:18:32;13.83;;;12.43;;
21621;SDS011;10973;46.706;12.340;2023-02-28T07:21:04;12.27;;;10.77;;
21621;SDS011;10973;46.706;12.340;2023-02-28T07:23:33;12.23;;;8.57;;
21621;SDS011;10973;46.706;12.340;2023-02-28T07:26:02;11.73;;;9.47;;
21621;SDS011;10973;46.706;12.340;2023-02-28T07:28:30;10.17;;;8.50;;
21621;SDS011;10973;46.706;12.340;2023-02-28T07:31:02;18.33;;;9.20;;
21621;SDS011;10973;46.706;12.340;2023-02-28T07:33:31;10.00;;;8.83;;
21621;SDS011;10973;46.706;12.340;2023-02-28T07:36:04;12.10;;;8.63;;
21621;SDS011;10973;46.706;12.340;2023-02-28T07:38:35;12.57;;;8.90;;
21621;SDS011;10973;46.706;12.340;2023-02-28T07:41:03;9.53;;;8.03;;
21621;SDS011;10973;46.706;12.340;2023-02-28T07:43:31;10.90;;;9.07;;
21621;SDS011;10973;46.706;12.340;2023-02-28T07:46:07;9.93;;;8.27;;
21621;SDS011;10973;46.706;12.340;2023-02-28T07:48:36;13.60;;;9.90;;
21621;SDS011;10973;46.706;12.340;2023-02-28T07:51:04;14.53;;;9.90;;
21621;SDS011;10973;46.706;12.340;2023-02-28T07:53:32;15.43;;;12.73;;
21621;SDS011;10973;46.706;12.340;2023-02-28T07:56:00;10.10;;;8.73;;
21621;SDS011;10973;46.706;12.340;2023-02-28T07:58:29;10.87;;;9.33;;
21621;SDS011;10973;46.706;12.340;2023-02-28T08:00:57;15.87;;;8.93;;
21621;SDS011;10973;46.706;12.340;2023-02-28T08:03:32;11.97;;;8.80;;
21621;SDS011;10973;46.706;12.340;2023-02-28T08:06:01;12.50;;;9.67;;
21621;SDS011;10973;46.706;12.340;2023-02-28T08:08:30;10.17;;;8.27;;
21621;SDS011;10973;46.706;12.340;2023-02-28T08:10:58;9.00;;;7.97;;
21621;SDS011;10973;46.706;12.340;2023-02-28T08:13:30;10.87;;;8.40;;
21621;SDS011;10973;46.706;12.340;2023-02-28T08:15:57;16.77;;;8.57;;
21621;SDS011;10973;46.706;12.340;2023-02-28T08:18:28;11.13;;;8.37;;
21621;SDS011;10973;46.706;12.340;2023-02-28T08:20:55;24.63;;;14.80;;
21621;SDS011;10973;46.706;12.340;2023-02-28T08:23:23;9.97;;;8.30;;
21621;SDS011;10973;46.706;12.340;2023-02-28T08:25:54;9.87;;;7.67;;
21621;SDS011;10973;46.706;12.340;2023-02-28T08:28:23;11.37;;;9.23;;
21621;SDS011;10973;46.706;12.340;2023-02-28T08:30:53;11.23;;;8.97;;
21621;SDS011;10973;46.706;12.340;2023-02-28T08:33:21;18.33;;;8.67;;
21621;SDS011;10973;46.706;12.340;2023-02-28T08:35:51;11.47;;;7.47;;
21621;SDS011;10973;46.706;12.340;2023-02-28T08:38:20;9.30;;;8.20;;
21621;SDS011;10973;46.706;12.340;2023-02-28T08:40:48;14.23;;;10.40;;
21621;SDS011;10973;46.706;12.340;2023-02-28T08:43:16;9.43;;;8.40;;
21621;SDS011;10973;46.706;12.340;2023-02-28T08:45:43;16.50;;;9.63;;
21621;SDS011;10973;46.706;12.340;2023-02-28T08:48:11;10.50;;;7.80;;
21621;SDS011;10973;46.706;12.340;2023-02-28T08:50:39;9.17;;;8.20;;
21621;SDS011;10973;46.706;12.340;2023-02-28T08:53:06;8.77;;;7.90;;
21621;SDS011;10973;46.706;12.340;2023-02-28T08:55:34;10.93;;;7.47;;
21621;SDS011;10973;46.706;12.340;2023-02-28T08:58:02;11.60;;;7.60;;
21621;SDS011;10973;46.706;12.340;2023-02-28T09:00:29;8.33;;;7.53;;
21621;SDS011;10973;46.706;12.340;2023-02-28T09:02:57;10.60;;;7.57;;
21621;SDS011;10973;46.706;12.340;2023-02-28T09:05:24;9.57;;;8.03;;
21621;SDS011;10973;46.706;12.340;2023-02-28T09:07:52;13.67;;;8.70;;
21621;SDS011;10973;46.706;12.340;2023-02-28T09:10:20;12.53;;;7.57;;
21621;SDS011;10973;46.706;12.340;2023-02-28T09:12:47;8.93;;;8.03;;
21621;SDS011;10973;46.706;12.340;2023-02-28T09:15:15;8.90;;;7.97;;
21621;SDS011;10973;46.706;12.340;2023-02-28T09:17:43;8.57;;;7.67;;
21621;SDS011;10973;46.706;12.340;2023-02-28T09:20:13;15.57;;;8.20;;
21621;SDS011;10973;46.706;12.340;2023-02-28T09:22:41;16.43;;;7.83;;
21621;SDS011;10973;46.706;12.340;2023-02-28T09:25:09;8.23;;;7.43;;
21621;SDS011;10973;46.706;12.340;2023-02-28T09:27:36;10.20;;;7.97;;
21621;SDS011;10973;46.706;12.340;2023-02-28T09:30:04;9.57;;;7.33;;
21621;SDS011;10973;46.706;12.340;2023-02-28T09:32:33;34.83;;;9.20;;
21621;SDS011;10973;46.706;12.340;2023-02-28T09:35:00;10.37;;;7.30;;
21621;SDS011;10973;46.706;12.340;2023-02-28T09:37:28;9.10;;;6.77;;
21621;SDS011;10973;46.706;12.340;2023-02-28T09:39:56;8.73;;;7.63;;
21621;SDS011;10973;46.706;12.340;2023-02-28T09:42:25;11.07;;;7.63;;
21621;SDS011;10973;46.706;12.340;2023-02-28T09:44:58;8.10;;;7.30;;
21621;SDS011;10973;46.706;12.340;2023-02-28T09:47:39;7.87;;;7.07;;
21621;SDS011;10973;46.706;12.340;2023-02-28T09:53:28;8.90;;;7.20;;
21621;SDS011;10973;46.706;12.340;2023-02-28T09:56:02;7.73;;;6.70;;
21621;SDS011;10973;46.706;12.340;2023-02-28T09:58:34;12.77;;;8.07;;
21621;SDS011;10973;46.706;12.340;2023-02-28T10:01:19;18.13;;;9.70;;
21621;SDS011;10973;46.706;12.340;2023-02-28T10:06:50;13.23;;;7.70;;
21621;SDS011;10973;46.706;12.340;2023-02-28T10:09:21;10.83;;;6.57;;
21621;SDS011;10973;46.706;12.340;2023-02-28T10:11:56;9.53;;;7.27;;
21621;SDS011;10973;46.706;12.340;2023-02-28T10:14:31;31.53;;;8.90;;
21621;SDS011;10973;46.706;12.340;2023-02-28T10:17:09;12.73;;;6.93;;
21621;SDS011;10973;46.706;12.340;2023-02-28T10:20:21;7.17;;;6.43;;
21621;SDS011;10973;46.706;12.340;2023-02-28T10:26:13;15.77;;;8.20;;
21621;SDS011;10973;46.706;12.340;2023-02-28T10:28:43;7.83;;;6.30;;
21621;SDS011;10973;46.706;12.340;2023-02-28T10:31:14;11.07;;;7.10;;
21621;SDS011;10973;46.706;12.340;2023-02-28T10:33:46;9.27;;;6.93;;
21621;SDS011;10973;46.706;12.340;2023-02-28T10:36:15;9.33;;;6.40;;
21621;SDS011;10973;46.706;12.340;2023-02-28T10:38:46;7.33;;;6.50;;
21621;SDS011;10973;46.706;12.340;2023-02-28T10:41:15;6.90;;;6.20;;
21621;SDS011;10973;46.706;12.340;2023-02-28T10:44:18;7.37;;;6.03;;
21621;SDS011;10973;46.706;12.340;2023-02-28T10:46:50;7.00;;;6.40;;
21621;SDS011;10973;46.706;12.340;2023-02-28T10:49:22;6.33;;;5.73;;
21621;SDS011;10973;46.706;12.340;2023-02-28T10:51:57;6.73;;;6.13;;
21621;SDS011;10973;46.706;12.340;2023-02-28T10:54:31;6.93;;;6.23;;
21621;SDS011;10973;46.706;12.340;2023-02-28T10:57:12;6.30;;;5.70;;
21621;SDS011;10973;46.706;12.340;2023-02-28T10:59:52;6.83;;;6.13;;
21621;SDS011;10973;46.706;12.340;2023-02-28T11:02:41;10.70;;;6.50;;
21621;SDS011;10973;46.706;12.340;2023-02-28T11:05:25;15.37;;;7.27;;
21621;SDS011;10973;46.706;12.340;2023-02-28T11:08:10;7.10;;;6.40;;
21621;SDS011;10973;46.706;12.340;2023-02-28T11:10:53;7.07;;;5.87;;
21621;SDS011;10973;46.706;12.340;2023-02-28T11:13:28;9.50;;;5.90;;
21621;SDS011;10973;46.706;12.340;2023-02-28T11:16:06;7.67;;;6.30;;
21621;SDS011;10973;46.706;12.340;2023-02-28T11:18:42;10.90;;;5.97;;
21621;SDS011;10973;46.706;12.340;2023-02-28T11:21:40;6.37;;;5.77;;
21621;SDS011;10973;46.706;12.340;2023-02-28T11:27:00;7.47;;;6.00;;
21621;SDS011;10973;46.706;12.340;2023-02-28T11:29:29;5.97;;;5.40;;
21621;SDS011;10973;46.706;12.340;2023-02-28T11:34:40;6.70;;;5.77;;
21621;SDS011;10973;46.706;12.340;2023-02-28T11:37:11;16.40;;;6.50;;
21621;SDS011;10973;46.706;12.340;2023-02-28T11:39:45;6.57;;;5.17;;
21621;SDS011;10973;46.706;12.340;2023-02-28T11:45:11;7.47;;;5.43;;
21621;SDS011;10973;46.706;12.340;2023-02-28T11:56:31;7.67;;;5.00;;
21621;SDS011;10973;46.706;12.340;2023-02-28T12:06:30;6.57;;;5.07;;
21621;SDS011;10973;46.706;12.340;2023-02-28T12:09:14;5.53;;;5.03;;
21621;SDS011;10973;46.706;12.340;2023-02-28T12:15:05;4.60;;;4.20;;
21621;SDS011;10973;46.706;12.340;2023-02-28T12:23:26;4.80;;;4.40;;
21621;SDS011;10973;46.706;12.340;2023-02-28T12:26:15;6.90;;;4.97;;
21621;SDS011;10973;46.706;12.340;2023-02-28T12:32:09;6.30;;;5.10;;
21621;SDS011;10973;46.706;12.340;2023-02-28T12:35:02;15.13;;;5.70;;
21621;SDS011;10973;46.706;12.340;2023-02-28T12:40:50;5.03;;;4.63;;
21621;SDS011;10973;46.706;12.340;2023-02-28T12:43:33;24.23;;;5.90;;
21621;SDS011;10973;46.706;12.340;2023-02-28T12:46:14;4.73;;;4.33;;
21621;SDS011;10973;46.706;12.340;2023-02-28T12:48:55;4.97;;;4.57;;
21621;SDS011;10973;46.706;12.340;2023-02-28T12:51:25;4.93;;;4.53;;
21621;SDS011;10973;46.706;12.340;2023-02-28T12:54:01;5.07;;;4.67;;
21621;SDS011;10973;46.706;12.340;2023-02-28T12:59:52;5.40;;;4.90;;
21621;SDS011;10973;46.706;12.340;2023-02-28T13:10:54;8.90;;;4.80;;
21621;SDS011;10973;46.706;12.340;2023-02-28T13:13:23;7.07;;;4.83;;
21621;SDS011;10973;46.706;12.340;2023-02-28T13:16:07;6.17;;;4.87;;
21621;SDS011;10973;46.706;12.340;2023-02-28T13:18:38;5.30;;;4.77;;
21621;SDS011;10973;46.706;12.340;2023-02-28T13:21:24;4.70;;;4.30;;
21621;SDS011;10973;46.706;12.340;2023-02-28T13:24:03;4.83;;;4.30;;
21621;SDS011;10973;46.706;12.340;2023-02-28T13:34:29;4.87;;;4.33;;
21621;SDS011;10973;46.706;12.340;2023-02-28T13:39:49;8.50;;;4.93;;
21621;SDS011;10973;46.706;12.340;2023-02-28T13:47:29;4.20;;;3.90;;
21621;SDS011;10973;46.706;12.340;2023-02-28T13:59:00;6.33;;;4.70;;
21621;SDS011;10973;46.706;12.340;2023-02-28T14:01:56;4.50;;;4.10;;
21621;SDS011;10973;46.706;12.340;2023-02-28T14:05:19;4.10;;;3.80;;
21621;SDS011;10973;46.706;12.340;2023-02-28T14:07:49;4.73;;;4.27;;
21621;SDS011;10973;46.706;12.340;2023-02-28T14:10:27;4.27;;;3.97;;
21621;SDS011;10973;46.706;12.340;2023-02-28T14:13:03;4.30;;;3.97;;
21621;SDS011;10973;46.706;12.340;2023-02-28T14:16:26;8.13;;;4.63;;
21621;SDS011;10973;46.706;12.340;2023-02-28T14:19:14;8.57;;;4.30;;
21621;SDS011;10973;46.706;12.340;2023-02-28T14:22:09;4.60;;;4.17;;
21621;SDS011;10973;46.706;12.340;2023-02-28T14:25:04;5.00;;;4.50;;
21621;SDS011;10973;46.706;12.340;2023-02-28T14:27:37;5.07;;;4.50;;
21621;SDS011;10973;46.706;12.340;2023-02-28T14:36:33;5.50;;;4.07;;
21621;SDS011;10973;46.706;12.340;2023-02-28T14:39:22;5.53;;;4.07;;
21621;SDS011;10973;46.706;12.340;2023-02-28T14:41:54;4.87;;;4.47;;
21621;SDS011;10973;46.706;12.340;2023-02-28T14:44:22;4.57;;;4.13;;
21621;SDS011;10973;46.706;12.340;2023-02-28T14:46:57;4.57;;;4.27;;
21621;SDS011;10973;46.706;12.340;2023-02-28T14:49:45;9.53;;;4.67;;
21621;SDS011;10973;46.706;12.340;2023-02-28T14:52:27;5.00;;;4.30;;
21621;SDS011;10973;46.706;12.340;2023-02-28T14:54:58;5.17;;;4.63;;
21621;SDS011;10973;46.706;12.340;2023-02-28T14:57:35;5.13;;;4.73;;
21621;SDS011;10973;46.706;12.340;2023-02-28T15:00:20;4.80;;;4.40;;
21621;SDS011;10973;46.706;12.340;2023-02-28T15:02:55;4.97;;;4.57;;
21621;SDS011;10973;46.706;12.340;2023-02-28T15:05:26;5.30;;;4.90;;
21621;SDS011;10973;46.706;12.340;2023-02-28T15:08:22;5.20;;;4.80;;
21621;SDS011;10973;46.706;12.340;2023-02-28T15:10:59;5.13;;;4.70;;
21621;SDS011;10973;46.706;12.340;2023-02-28T15:19:00;5.40;;;4.90;;
21621;SDS011;10973;46.706;12.340;2023-02-28T15:22:01;5.80;;;4.80;;
21621;SDS011;10973;46.706;12.340;2023-02-28T15:24:46;5.80;;;5.30;;
21621;SDS011;10973;46.706;12.340;2023-02-28T15:29:55;5.37;;;4.87;;
21621;SDS011;10973;46.706;12.340;2023-02-28T15:32:28;8.87;;;5.70;;
21621;SDS011;10973;46.706;12.340;2023-02-28T15:40:40;5.07;;;4.63;;
21621;SDS011;10973;46.706;12.340;2023-02-28T15:43:18;5.90;;;5.37;;
21621;SDS011;10973;46.706;12.340;2023-02-28T15:45:47;6.13;;;5.47;;
21621;SDS011;10973;46.706;12.340;2023-02-28T15:48:21;6.90;;;6.20;;
21621;SDS011;10973;46.706;12.340;2023-02-28T15:50:56;8.57;;;5.80;;
21621;SDS011;10973;46.706;12.340;2023-02-28T15:53:34;6.33;;;5.60;;
21621;SDS011;10973;46.706;12.340;2023-02-28T15:56:16;6.33;;;5.73;;
21621;SDS011;10973;46.706;12.340;2023-02-28T15:59:21;7.27;;;6.27;;
21621;SDS011;10973;46.706;12.340;2023-02-28T16:02:13;8.20;;;5.83;;
21621;SDS011;10973;46.706;12.340;2023-02-28T16:07:44;6.43;;;5.83;;
21621;SDS011;10973;46.706;12.340;2023-02-28T16:10:16;6.13;;;5.53;;
21621;SDS011;10973;46.706;12.340;2023-02-28T16:12:44;6.70;;;6.10;;
21621;SDS011;10973;46.706;12.340;2023-02-28T16:15:19;11.47;;;7.47;;
21621;SDS011;10973;46.706;12.340;2023-02-28T16:18:00;7.60;;;6.17;;
21621;SDS011;10973;46.706;12.340;2023-02-28T16:20:28;6.40;;;5.80;;
21621;SDS011;10973;46.706;12.340;2023-02-28T16:22:57;7.43;;;5.97;;
21621;SDS011;10973;46.706;12.340;2023-02-28T16:25:35;6.50;;;5.90;;
21621;SDS011;10973;46.706;12.340;2023-02-28T16:28:32;8.10;;;6.30;;
21621;SDS011;10973;46.706;12.340;2023-02-28T16:31:05;6.60;;;6.00;;
21621;SDS011;10973;46.706;12.340;2023-02-28T16:33:34;7.20;;;6.23;;
21621;SDS011;10973;46.706;12.340;2023-02-28T16:36:01;8.00;;;6.30;;
21621;SDS011;10973;46.706;12.340;2023-02-28T16:38:29;13.03;;;8.47;;
21621;SDS011;10973;46.706;12.340;2023-02-28T16:40:57;7.20;;;6.50;;
21621;SDS011;10973;46.706;12.340;2023-02-28T16:43:27;8.10;;;6.60;;
21621;SDS011;10973;46.706;12.340;2023-02-28T16:45:56;7.93;;;5.80;;
21621;SDS011;10973;46.706;12.340;2023-02-28T16:48:26;7.20;;;6.30;;
21621;SDS011;10973;46.706;12.340;2023-02-28T16:50:54;7.67;;;6.27;;
21621;SDS011;10973;46.706;12.340;2023-02-28T16:53:21;13.00;;;7.13;;
21621;SDS011;10973;46.706;12.340;2023-02-28T16:55:48;8.77;;;7.73;;
21621;SDS011;10973;46.706;12.340;2023-02-28T16:58:16;8.40;;;6.37;;
21621;SDS011;10973;46.706;12.340;2023-02-28T17:00:43;9.67;;;7.50;;
21621;SDS011;10973;46.706;12.340;2023-02-28T17:03:22;7.53;;;6.73;;
21621;SDS011;10973;46.706;12.340;2023-02-28T17:05:59;8.20;;;7.00;;
21621;SDS011;10973;46.706;12.340;2023-02-28T17:08:26;8.57;;;6.97;;
21621;SDS011;10973;46.706;12.340;2023-02-28T17:10:54;9.70;;;7.43;;
21621;SDS011;10973;46.706;12.340;2023-02-28T17:13:22;9.33;;;7.67;;
21621;SDS011;10973;46.706;12.340;2023-02-28T17:15:50;10.87;;;7.97;;
21621;SDS011;10973;46.706;12.340;2023-02-28T17:18:18;10.00;;;7.77;;
21621;SDS011;10973;46.706;12.340;2023-02-28T17:20:47;8.83;;;7.93;;
21621;SDS011;10973;46.706;12.340;2023-02-28T17:23:15;11.93;;;9.20;;
21621;SDS011;10973;46.706;12.340;2023-02-28T17:29:56;11.73;;;8.97;;
21621;SDS011;10973;46.706;12.340;2023-02-28T17:32:25;18.50;;;13.53;;
21621;SDS011;10973;46.706;12.340;2023-02-28T17:34:53;11.33;;;9.73;;
21621;SDS011;10973;46.706;12.340;2023-02-28T17:37:20;10.00;;;7.50;;